sensor_id;sensor_type;location;lat;lon;timestamp;temperature;humidity
53314;DHT22;39202;51.468;7.146;2022-12-07T00:01:55;22.40;42.00
53314;DHT22;39202;51.468;7.146;2022-12-07T00:06:57;22.40;42.00
53314;DHT22;39202;51.468;7.146;2022-12-07T00:12:00;22.40;42.00
53314;DHT22;39202;51.468;7.146;2022-12-07T00:17:01;22.40;41.90
53314;DHT22;39202;51.468;7.146;2022-12-07T00:22:03;22.40;41.90
53314;DHT22;39202;51.468;7.146;2022-12-07T00:27:06;22.40;41.90
53314;DHT22;39202;51.468;7.146;2022-12-07T00:32:08;22.40;41.90
53314;DHT22;39202;51.468;7.146;2022-12-07T00:37:09;22.40;41.90
53314;DHT22;39202;51.468;7.146;2022-12-07T00:42:14;22.40;41.90
53314;DHT22;39202;51.468;7.146;2022-12-07T00:47:16;22.40;41.90
53314;DHT22;39202;51.468;7.146;2022-12-07T00:52:17;22.40;41.90
53314;DHT22;39202;51.468;7.146;2022-12-07T00:57:20;22.40;41.90
53314;DHT22;39202;51.468;7.146;2022-12-07T01:02:22;22.40;41.90
53314;DHT22;39202;51.468;7.146;2022-12-07T01:07:24;22.40;41.90
53314;DHT22;39202;51.468;7.146;2022-12-07T01:12:27;22.40;41.90
53314;DHT22;39202;51.468;7.146;2022-12-07T01:17:29;22.40;41.90
53314;DHT22;39202;51.468;7.146;2022-12-07T01:22:30;22.40;41.80
53314;DHT22;39202;51.468;7.146;2022-12-07T01:27:34;22.40;41.90
53314;DHT22;39202;51.468;7.146;2022-12-07T01:32:36;22.40;41.90
53314;DHT22;39202;51.468;7.146;2022-12-07T01:37:39;22.40;41.80
53314;DHT22;39202;51.468;7.146;2022-12-07T01:42:42;22.40;41.90
53314;DHT22;39202;51.468;7.146;2022-12-07T01:47:47;22.40;41.80
53314;DHT22;39202;51.468;7.146;2022-12-07T01:52:54;22.40;41.90
53314;DHT22;39202;51.468;7.146;2022-12-07T01:57:58;22.40;41.80
53314;DHT22;39202;51.468;7.146;2022-12-07T02:03:04;22.40;41.80
53314;DHT22;39202;51.468;7.146;2022-12-07T02:08:07;22.40;41.80
53314;DHT22;39202;51.468;7.146;2022-12-07T02:13:13;22.40;41.80
53314;DHT22;39202;51.468;7.146;2022-12-07T02:18:20;22.40;41.90
53314;DHT22;39202;51.468;7.146;2022-12-07T02:23:51;22.40;41.90
53314;DHT22;39202;51.468;7.146;2022-12-07T02:29:20;22.40;41.80
53314;DHT22;39202;51.468;7.146;2022-12-07T02:34:32;22.40;41.80
53314;DHT22;39202;51.468;7.146;2022-12-07T02:39:41;22.40;41.90
53314;DHT22;39202;51.468;7.146;2022-12-07T02:44:46;22.40;41.80
53314;DHT22;39202;51.468;7.146;2022-12-07T02:49:49;22.40;41.80
53314;DHT22;39202;51.468;7.146;2022-12-07T02:54:51;22.40;41.80
53314;DHT22;39202;51.468;7.146;2022-12-07T03:00:01;22.40;41.80
53314;DHT22;39202;51.468;7.146;2022-12-07T03:05:13;22.40;41.80
53314;DHT22;39202;51.468;7.146;2022-12-07T03:10:21;22.40;41.80
53314;DHT22;39202;51.468;7.146;2022-12-07T03:15:30;22.40;41.80
53314;DHT22;39202;51.468;7.146;2022-12-07T03:20:34;22.40;41.80
53314;DHT22;39202;51.468;7.146;2022-12-07T03:25:40;22.40;41.80
53314;DHT22;39202;51.468;7.146;2022-12-07T03:30:47;22.40;41.90
53314;DHT22;39202;51.468;7.146;2022-12-07T03:35:58;22.40;41.80
53314;DHT22;39202;51.468;7.146;2022-12-07T03:41:05;22.40;41.80
53314;DHT22;39202;51.468;7.146;2022-12-07T03:46:17;22.40;41.80
53314;DHT22;39202;51.468;7.146;2022-12-07T03:51:24;22.40;41.80
53314;DHT22;39202;51.468;7.146;2022-12-07T03:56:27;22.40;41.80
53314;DHT22;39202;51.468;7.146;2022-12-07T04:01:31;22.40;41.80
53314;DHT22;39202;51.468;7.146;2022-12-07T04:06:33;22.40;41.80
53314;DHT22;39202;51.468;7.146;2022-12-07T04:11:35;22.40;41.90
53314;DHT22;39202;51.468;7.146;2022-12-07T04:16:38;22.40;41.80
53314;DHT22;39202;51.468;7.146;2022-12-07T04:21:40;22.30;41.80
53314;DHT22;39202;51.468;7.146;2022-12-07T04:26:42;22.30;41.80
53314;DHT22;39202;51.468;7.146;2022-12-07T04:31:46;22.30;41.80
53314;DHT22;39202;51.468;7.146;2022-12-07T04:36:48;22.30;41.80
53314;DHT22;39202;51.468;7.146;2022-12-07T04:41:50;22.30;41.80
53314;DHT22;39202;51.468;7.146;2022-12-07T04:46:54;22.30;41.90
53314;DHT22;39202;51.468;7.146;2022-12-07T04:51:57;22.30;41.90
53314;DHT22;39202;51.468;7.146;2022-12-07T04:56:59;22.30;41.80
53314;DHT22;39202;51.468;7.146;2022-12-07T05:02:02;22.30;41.80
53314;DHT22;39202;51.468;7.146;2022-12-07T05:07:03;22.30;41.80
53314;DHT22;39202;51.468;7.146;2022-12-07T05:12:05;22.30;41.80
53314;DHT22;39202;51.468;7.146;2022-12-07T05:17:08;22.30;41.80
53314;DHT22;39202;51.468;7.146;2022-12-07T05:22:11;22.30;41.80
53314;DHT22;39202;51.468;7.146;2022-12-07T05:27:14;22.30;41.80
53314;DHT22;39202;51.468;7.146;2022-12-07T05:32:17;22.30;41.80
53314;DHT22;39202;51.468;7.146;2022-12-07T05:37:19;22.30;41.80
53314;DHT22;39202;51.468;7.146;2022-12-07T05:42:21;22.30;41.80
53314;DHT22;39202;51.468;7.146;2022-12-07T05:47:24;22.20;41.80
53314;DHT22;39202;51.468;7.146;2022-12-07T05:52:26;22.20;41.80
53314;DHT22;39202;51.468;7.146;2022-12-07T05:57:27;22.30;41.80
53314;DHT22;39202;51.468;7.146;2022-12-07T06:02:31;22.20;41.80
53314;DHT22;39202;51.468;7.146;2022-12-07T06:07:32;22.20;41.90
53314;DHT22;39202;51.468;7.146;2022-12-07T06:12:34;22.20;41.80
53314;DHT22;39202;51.468;7.146;2022-12-07T06:17:37;22.20;41.90
53314;DHT22;39202;51.468;7.146;2022-12-07T06:22:39;22.20;41.90
53314;DHT22;39202;51.468;7.146;2022-12-07T06:27:41;22.30;41.90
53314;DHT22;39202;51.468;7.146;2022-12-07T06:32:44;22.30;41.90
53314;DHT22;39202;51.468;7.146;2022-12-07T06:37:46;22.30;41.90
53314;DHT22;39202;51.468;7.146;2022-12-07T06:42:48;21.80;41.60
53314;DHT22;39202;51.468;7.146;2022-12-07T06:47:51;22.30;41.80
53314;DHT22;39202;51.468;7.146;2022-12-07T06:52:53;22.30;41.90
53314;DHT22;39202;51.468;7.146;2022-12-07T06:57:54;22.30;41.90
53314;DHT22;39202;51.468;7.146;2022-12-07T07:02:57;22.30;41.90
53314;DHT22;39202;51.468;7.146;2022-12-07T07:07:59;22.30;41.80
53314;DHT22;39202;51.468;7.146;2022-12-07T07:13:01;22.30;41.90
53314;DHT22;39202;51.468;7.146;2022-12-07T07:18:05;22.30;42.10
53314;DHT22;39202;51.468;7.146;2022-12-07T07:23:06;22.40;42.30
53314;DHT22;39202;51.468;7.146;2022-12-07T07:28:08;22.50;42.40
53314;DHT22;39202;51.468;7.146;2022-12-07T07:33:11;22.60;42.50
53314;DHT22;39202;51.468;7.146;2022-12-07T07:38:13;22.80;42.50
53314;DHT22;39202;51.468;7.146;2022-12-07T07:43:15;22.90;42.50
53314;DHT22;39202;51.468;7.146;2022-12-07T07:48:18;23.00;42.60
53314;DHT22;39202;51.468;7.146;2022-12-07T07:53:20;23.10;42.50
53314;DHT22;39202;51.468;7.146;2022-12-07T07:58:22;23.20;42.40
53314;DHT22;39202;51.468;7.146;2022-12-07T08:03:25;23.30;43.00
53314;DHT22;39202;51.468;7.146;2022-12-07T08:08:26;23.50;42.40
53314;DHT22;39202;51.468;7.146;2022-12-07T08:13:28;23.60;42.40
53314;DHT22;39202;51.468;7.146;2022-12-07T08:18:35;23.70;42.40
53314;DHT22;39202;51.468;7.146;2022-12-07T08:23:37;23.80;43.10
53314;DHT22;39202;51.468;7.146;2022-12-07T08:28:39;24.00;42.30
53314;DHT22;39202;51.468;7.146;2022-12-07T08:33:44;24.10;42.00
53314;DHT22;39202;51.468;7.146;2022-12-07T08:38:46;24.10;41.90
53314;DHT22;39202;51.468;7.146;2022-12-07T08:43:48;24.20;42.00
53314;DHT22;39202;51.468;7.146;2022-12-07T08:48:55;24.20;42.80
53314;DHT22;39202;51.468;7.146;2022-12-07T08:53:58;24.20;44.70
53314;DHT22;39202;51.468;7.146;2022-12-07T08:59:02;24.20;44.80
53314;DHT22;39202;51.468;7.146;2022-12-07T09:04:05;24.30;45.90
53314;DHT22;39202;51.468;7.146;2022-12-07T09:09:08;24.30;47.20
53314;DHT22;39202;51.468;7.146;2022-12-07T09:14:10;24.30;43.60
53314;DHT22;39202;51.468;7.146;2022-12-07T09:19:14;24.40;46.30
53314;DHT22;39202;51.468;7.146;2022-12-07T09:24:16;24.30;48.50
53314;DHT22;39202;51.468;7.146;2022-12-07T09:29:17;24.30;65.90
53314;DHT22;39202;51.468;7.146;2022-12-07T09:34:20;24.30;66.30
53314;DHT22;39202;51.468;7.146;2022-12-07T09:39:22;24.20;44.90
53314;DHT22;39202;51.468;7.146;2022-12-07T09:44:26;24.30;41.90
53314;DHT22;39202;51.468;7.146;2022-12-07T09:49:31;24.30;41.70
53314;DHT22;39202;51.468;7.146;2022-12-07T09:54:36;24.20;41.70
53314;DHT22;39202;51.468;7.146;2022-12-07T09:59:42;24.20;41.70
53314;DHT22;39202;51.468;7.146;2022-12-07T10:04:45;24.20;41.80
53314;DHT22;39202;51.468;7.146;2022-12-07T10:09:47;24.20;41.90
53314;DHT22;39202;51.468;7.146;2022-12-07T10:14:55;24.20;41.90
53314;DHT22;39202;51.468;7.146;2022-12-07T10:20:17;24.10;41.90
53314;DHT22;39202;51.468;7.146;2022-12-07T10:25:21;24.20;42.00
53314;DHT22;39202;51.468;7.146;2022-12-07T10:30:23;24.10;42.00
53314;DHT22;39202;51.468;7.146;2022-12-07T10:35:27;24.10;42.00
53314;DHT22;39202;51.468;7.146;2022-12-07T10:40:32;24.10;42.00
53314;DHT22;39202;51.468;7.146;2022-12-07T10:45:35;24.10;42.10
53314;DHT22;39202;51.468;7.146;2022-12-07T10:50:55;24.10;42.10
53314;DHT22;39202;51.468;7.146;2022-12-07T11:01:28;24.10;41.10
53314;DHT22;39202;51.468;7.146;2022-12-07T11:06:36;24.00;41.20
53314;DHT22;39202;51.468;7.146;2022-12-07T11:11:45;24.00;41.30
53314;DHT22;39202;51.468;7.146;2022-12-07T11:16:55;23.90;41.40
53314;DHT22;39202;51.468;7.146;2022-12-07T11:22:03;23.90;41.50
53314;DHT22;39202;51.468;7.146;2022-12-07T11:27:18;23.90;41.60
53314;DHT22;39202;51.468;7.146;2022-12-07T11:32:27;23.80;41.60
53314;DHT22;39202;51.468;7.146;2022-12-07T11:37:37;23.80;41.70
53314;DHT22;39202;51.468;7.146;2022-12-07T11:42:44;23.80;41.70
53314;DHT22;39202;51.468;7.146;2022-12-07T11:47:51;23.80;41.70
53314;DHT22;39202;51.468;7.146;2022-12-07T11:52:58;23.80;41.70
53314;DHT22;39202;51.468;7.146;2022-12-07T11:58:05;23.80;41.70
53314;DHT22;39202;51.468;7.146;2022-12-07T12:03:14;23.80;41.70
53314;DHT22;39202;51.468;7.146;2022-12-07T12:08:22;23.80;41.80
53314;DHT22;39202;51.468;7.146;2022-12-07T12:19:18;23.80;42.00
53314;DHT22;39202;51.468;7.146;2022-12-07T12:24:24;23.90;42.20
53314;DHT22;39202;51.468;7.146;2022-12-07T12:29:31;23.90;42.20
53314;DHT22;39202;51.468;7.146;2022-12-07T12:34:39;23.90;42.10
53314;DHT22;39202;51.468;7.146;2022-12-07T12:45:25;23.90;41.90
53314;DHT22;39202;51.468;7.146;2022-12-07T12:50:30;23.90;41.90
53314;DHT22;39202;51.468;7.146;2022-12-07T13:01:40;23.90;41.70
53314;DHT22;39202;51.468;7.146;2022-12-07T13:06:42;23.80;41.70
53314;DHT22;39202;51.468;7.146;2022-12-07T13:11:45;23.80;41.70
53314;DHT22;39202;51.468;7.146;2022-12-07T13:16:49;23.80;41.90
53314;DHT22;39202;51.468;7.146;2022-12-07T13:21:50;23.70;42.00
53314;DHT22;39202;51.468;7.146;2022-12-07T13:26:56;23.70;42.10
53314;DHT22;39202;51.468;7.146;2022-12-07T13:31:59;23.70;42.30
53314;DHT22;39202;51.468;7.146;2022-12-07T13:37:09;23.80;42.40
53314;DHT22;39202;51.468;7.146;2022-12-07T13:42:22;23.80;42.40
53314;DHT22;39202;51.468;7.146;2022-12-07T13:47:34;23.80;42.60
53314;DHT22;39202;51.468;7.146;2022-12-07T13:52:43;23.80;42.50
53314;DHT22;39202;51.468;7.146;2022-12-07T13:57:48;23.80;42.50
53314;DHT22;39202;51.468;7.146;2022-12-07T14:02:57;23.80;42.40
53314;DHT22;39202;51.468;7.146;2022-12-07T14:08:02;23.90;42.40
53314;DHT22;39202;51.468;7.146;2022-12-07T14:13:26;23.80;42.30
53314;DHT22;39202;51.468;7.146;2022-12-07T14:18:37;23.80;42.30
53314;DHT22;39202;51.468;7.146;2022-12-07T14:23:40;23.80;42.20
53314;DHT22;39202;51.468;7.146;2022-12-07T14:28:43;23.80;42.20
53314;DHT22;39202;51.468;7.146;2022-12-07T14:33:46;23.80;42.10
53314;DHT22;39202;51.468;7.146;2022-12-07T14:38:47;23.80;42.10
53314;DHT22;39202;51.468;7.146;2022-12-07T14:43:49;23.80;42.10
53314;DHT22;39202;51.468;7.146;2022-12-07T14:48:52;23.70;42.00
53314;DHT22;39202;51.468;7.146;2022-12-07T14:53:54;23.70;42.00
53314;DHT22;39202;51.468;7.146;2022-12-07T14:58:56;23.70;42.00
53314;DHT22;39202;51.468;7.146;2022-12-07T15:04:00;23.70;42.00
53314;DHT22;39202;51.468;7.146;2022-12-07T15:09:02;23.60;42.00
53314;DHT22;39202;51.468;7.146;2022-12-07T15:14:04;23.60;42.00
53314;DHT22;39202;51.468;7.146;2022-12-07T15:19:15;23.50;42.00
53314;DHT22;39202;51.468;7.146;2022-12-07T15:24:17;23.50;42.00
53314;DHT22;39202;51.468;7.146;2022-12-07T15:29:19;23.40;42.00
53314;DHT22;39202;51.468;7.146;2022-12-07T15:34:23;23.40;42.00
53314;DHT22;39202;51.468;7.146;2022-12-07T15:39:25;23.40;42.00
53314;DHT22;39202;51.468;7.146;2022-12-07T15:44:27;23.30;42.00
53314;DHT22;39202;51.468;7.146;2022-12-07T15:49:47;23.30;42.00
53314;DHT22;39202;51.468;7.146;2022-12-07T15:54:49;23.30;42.00
53314;DHT22;39202;51.468;7.146;2022-12-07T15:59:51;23.30;42.00
53314;DHT22;39202;51.468;7.146;2022-12-07T16:04:54;23.20;42.00
53314;DHT22;39202;51.468;7.146;2022-12-07T16:09:55;23.20;42.00
53314;DHT22;39202;51.468;7.146;2022-12-07T16:14:57;23.20;42.10
53314;DHT22;39202;51.468;7.146;2022-12-07T16:20:00;23.10;42.00
53314;DHT22;39202;51.468;7.146;2022-12-07T16:25:02;23.10;42.10
53314;DHT22;39202;51.468;7.146;2022-12-07T16:30:05;23.10;42.10
53314;DHT22;39202;51.468;7.146;2022-12-07T16:35:09;23.10;42.10
53314;DHT22;39202;51.468;7.146;2022-12-07T16:40:11;23.00;42.10
53314;DHT22;39202;51.468;7.146;2022-12-07T16:45:13;23.00;42.00
53314;DHT22;39202;51.468;7.146;2022-12-07T16:50:16;23.00;42.10
53314;DHT22;39202;51.468;7.146;2022-12-07T16:55:18;23.00;42.10
53314;DHT22;39202;51.468;7.146;2022-12-07T17:00:20;22.90;42.10
53314;DHT22;39202;51.468;7.146;2022-12-07T17:05:23;22.90;42.10
53314;DHT22;39202;51.468;7.146;2022-12-07T17:10:28;22.90;42.20
53314;DHT22;39202;51.468;7.146;2022-12-07T17:15:30;22.80;42.10
53314;DHT22;39202;51.468;7.146;2022-12-07T17:20:33;22.80;42.10
53314;DHT22;39202;51.468;7.146;2022-12-07T17:25:35;22.80;42.20
53314;DHT22;39202;51.468;7.146;2022-12-07T17:30:38;22.80;42.30
53314;DHT22;39202;51.468;7.146;2022-12-07T17:35:41;22.70;42.20
53314;DHT22;39202;51.468;7.146;2022-12-07T17:40:42;22.70;42.20
53314;DHT22;39202;51.468;7.146;2022-12-07T17:45:44;22.70;42.20
53314;DHT22;39202;51.468;7.146;2022-12-07T17:50:47;22.70;42.30
53314;DHT22;39202;51.468;7.146;2022-12-07T17:56:07;22.70;42.30
53314;DHT22;39202;51.468;7.146;2022-12-07T18:01:08;22.60;42.20
53314;DHT22;39202;51.468;7.146;2022-12-07T18:06:11;22.60;42.20
53314;DHT22;39202;51.468;7.146;2022-12-07T18:11:13;22.60;42.20
53314;DHT22;39202;51.468;7.146;2022-12-07T18:16:16;22.60;42.20
53314;DHT22;39202;51.468;7.146;2022-12-07T18:21:21;22.50;42.30
53314;DHT22;39202;51.468;7.146;2022-12-07T18:26:24;22.50;42.30
53314;DHT22;39202;51.468;7.146;2022-12-07T18:31:26;22.50;42.30
53314;DHT22;39202;51.468;7.146;2022-12-07T18:36:30;22.50;42.30
53314;DHT22;39202;51.468;7.146;2022-12-07T18:41:32;22.50;42.30
53314;DHT22;39202;51.468;7.146;2022-12-07T18:46:35;22.50;42.30
53314;DHT22;39202;51.468;7.146;2022-12-07T18:51:38;22.50;42.30
53314;DHT22;39202;51.468;7.146;2022-12-07T18:56:40;22.40;42.90
53314;DHT22;39202;51.468;7.146;2022-12-07T19:01:44;22.50;42.30
53314;DHT22;39202;51.468;7.146;2022-12-07T19:06:48;22.40;42.30
53314;DHT22;39202;51.468;7.146;2022-12-07T19:11:50;22.40;42.30
53314;DHT22;39202;51.468;7.146;2022-12-07T19:16:53;22.40;42.30
53314;DHT22;39202;51.468;7.146;2022-12-07T19:21:57;22.40;42.40
53314;DHT22;39202;51.468;7.146;2022-12-07T19:26:59;22.40;42.40
53314;DHT22;39202;51.468;7.146;2022-12-07T19:32:03;22.40;42.40
53314;DHT22;39202;51.468;7.146;2022-12-07T19:37:07;22.40;42.40
53314;DHT22;39202;51.468;7.146;2022-12-07T19:42:11;22.50;42.50
53314;DHT22;39202;51.468;7.146;2022-12-07T19:47:14;22.50;42.50
53314;DHT22;39202;51.468;7.146;2022-12-07T19:52:18;22.50;42.40
53314;DHT22;39202;51.468;7.146;2022-12-07T19:57:19;22.50;42.40
53314;DHT22;39202;51.468;7.146;2022-12-07T20:02:21;22.50;42.40
53314;DHT22;39202;51.468;7.146;2022-12-07T20:07:24;22.50;42.40
53314;DHT22;39202;51.468;7.146;2022-12-07T20:12:26;22.50;42.40
53314;DHT22;39202;51.468;7.146;2022-12-07T20:17:45;22.50;42.40
53314;DHT22;39202;51.468;7.146;2022-12-07T20:22:48;22.50;42.30
53314;DHT22;39202;51.468;7.146;2022-12-07T20:27:50;22.50;42.30
53314;DHT22;39202;51.468;7.146;2022-12-07T20:32:52;22.50;42.30
53314;DHT22;39202;51.468;7.146;2022-12-07T20:37:55;22.50;42.30
53314;DHT22;39202;51.468;7.146;2022-12-07T20:42:57;22.50;42.30
53314;DHT22;39202;51.468;7.146;2022-12-07T20:47:59;22.50;42.30
53314;DHT22;39202;51.468;7.146;2022-12-07T20:53:02;22.50;42.30
53314;DHT22;39202;51.468;7.146;2022-12-07T20:58:04;22.50;42.30
53314;DHT22;39202;51.468;7.146;2022-12-07T21:03:05;22.40;42.20
53314;DHT22;39202;51.468;7.146;2022-12-07T21:08:08;22.40;42.20
53314;DHT22;39202;51.468;7.146;2022-12-07T21:13:10;22.40;42.30
53314;DHT22;39202;51.468;7.146;2022-12-07T21:18:12;22.40;42.30
53314;DHT22;39202;51.468;7.146;2022-12-07T21:23:15;22.40;42.30
53314;DHT22;39202;51.468;7.146;2022-12-07T21:28:17;22.40;42.30
53314;DHT22;39202;51.468;7.146;2022-12-07T21:33:19;22.40;42.40
53314;DHT22;39202;51.468;7.146;2022-12-07T21:38:22;22.40;42.40
53314;DHT22;39202;51.468;7.146;2022-12-07T21:43:23;22.40;42.40
53314;DHT22;39202;51.468;7.146;2022-12-07T21:48:25;22.40;42.30
53314;DHT22;39202;51.468;7.146;2022-12-07T21:53:28;22.40;42.40
53314;DHT22;39202;51.468;7.146;2022-12-07T21:58:30;22.50;42.40
53314;DHT22;39202;51.468;7.146;2022-12-07T22:03:32;22.50;42.40
53314;DHT22;39202;51.468;7.146;2022-12-07T22:08:35;22.50;42.30
53314;DHT22;39202;51.468;7.146;2022-12-07T22:13:37;22.50;42.90
53314;DHT22;39202;51.468;7.146;2022-12-07T22:18:56;22.50;42.30
53314;DHT22;39202;51.468;7.146;2022-12-07T22:24:00;22.50;42.30
53314;DHT22;39202;51.468;7.146;2022-12-07T22:29:02;22.50;42.30
53314;DHT22;39202;51.468;7.146;2022-12-07T22:34:04;22.50;42.30
53314;DHT22;39202;51.468;7.146;2022-12-07T22:39:07;22.50;42.30
53314;DHT22;39202;51.468;7.146;2022-12-07T22:44:10;22.40;42.20
53314;DHT22;39202;51.468;7.146;2022-12-07T22:49:11;22.40;42.20
53314;DHT22;39202;51.468;7.146;2022-12-07T22:54:15;22.40;42.20
53314;DHT22;39202;51.468;7.146;2022-12-07T22:59:17;22.40;42.20
53314;DHT22;39202;51.468;7.146;2022-12-07T23:04:18;22.40;42.20
53314;DHT22;39202;51.468;7.146;2022-12-07T23:09:21;22.40;42.20
53314;DHT22;39202;51.468;7.146;2022-12-07T23:14:26;22.40;42.30
53314;DHT22;39202;51.468;7.146;2022-12-07T23:19:29;22.40;42.30
53314;DHT22;39202;51.468;7.146;2022-12-07T23:24:32;22.40;42.30
53314;DHT22;39202;51.468;7.146;2022-12-07T23:29:33;22.40;42.30
53314;DHT22;39202;51.468;7.146;2022-12-07T23:34:35;22.40;42.30
53314;DHT22;39202;51.468;7.146;2022-12-07T23:39:38;22.40;42.30
53314;DHT22;39202;51.468;7.146;2022-12-07T23:44:40;22.40;42.30
53314;DHT22;39202;51.468;7.146;2022-12-07T23:49:42;22.40;42.30
53314;DHT22;39202;51.468;7.146;2022-12-07T23:54:45;22.40;42.30
53314;DHT22;39202;51.468;7.146;2022-12-07T23:59:47;22.40;42.30
